createdAt,value
2019-05-22T00:00:20.212Z,16.93
2019-05-22T00:02:49.501Z,21.10
2019-05-22T00:05:34.852Z,22.02
2019-05-22T00:08:09.183Z,22.40
2019-05-22T00:10:39.596Z,22.87
2019-05-22T00:13:10.422Z,22.47
2019-05-22T00:15:39.863Z,18.40
2019-05-22T00:18:10.277Z,20.52
2019-05-22T00:20:39.260Z,22.85
2019-05-22T00:23:10.020Z,22.65
2019-05-22T00:25:38.845Z,24.05
2019-05-22T00:28:08.297Z,21.42
2019-05-22T00:30:38.864Z,21.97
2019-05-22T00:33:08.089Z,21.62
2019-05-22T00:35:38.475Z,23.20
2019-05-22T00:38:09.763Z,20.70
2019-05-22T00:40:42.814Z,15.80
2019-05-22T00:43:14.381Z,23.00
2019-05-22T00:45:46.097Z,18.57
2019-05-22T00:48:16.605Z,19.98
2019-05-22T00:50:53.844Z,17.55
2019-05-22T00:53:43.398Z,17.25
2019-05-22T00:56:32.477Z,19.05
2019-05-22T00:59:02.864Z,19.10
2019-05-22T01:01:33.173Z,16.75
2019-05-22T01:04:03.539Z,18.17
2019-05-22T01:06:33.270Z,19.32
2019-05-22T01:09:04.574Z,16.37
2019-05-22T01:11:34.285Z,25.68
2019-05-22T01:14:04.891Z,17.52
2019-05-22T01:16:34.187Z,21.82
2019-05-22T01:19:03.680Z,19.52
2019-05-22T01:21:33.514Z,20.70
2019-05-22T01:24:04.507Z,16.62
2019-05-22T01:26:34.279Z,23.65
2019-05-22T01:29:04.379Z,21.52
2019-05-22T01:31:42.631Z,18.98
2019-05-22T01:34:12.812Z,18.62
2019-05-22T01:36:46.915Z,20.55
2019-05-22T01:39:22.960Z,21.02
2019-05-22T01:41:53.630Z,27.07
2019-05-22T01:44:24.775Z,22.45
2019-05-22T01:49:22.970Z,21.27
2019-05-22T01:51:53.258Z,23.83
2019-05-22T01:54:21.927Z,22.17
2019-05-22T01:56:51.627Z,25.32
2019-05-22T01:59:21.206Z,19.15
2019-05-22T02:01:51.609Z,25.65
2019-05-22T02:04:22.001Z,17.32
2019-05-22T02:06:51.222Z,20.08
2019-05-22T02:09:33.551Z,24.32
2019-05-22T02:12:27.498Z,32.23
2019-05-22T02:14:58.177Z,17.55
2019-05-22T02:17:31.632Z,25.40
2019-05-22T02:20:00.728Z,16.67
2019-05-22T02:22:30.161Z,17.23
2019-05-22T02:24:59.892Z,19.25
2019-05-22T02:27:30.197Z,14.83
2019-05-22T02:29:59.173Z,19.97
2019-05-22T02:32:29.453Z,16.17
2019-05-22T02:34:58.181Z,19.03
2019-05-22T02:37:27.268Z,19.67
2019-05-22T02:39:55.967Z,19.42
2019-05-22T02:42:30.021Z,21.23
2019-05-22T02:45:00.720Z,25.50
2019-05-22T02:47:31.097Z,21.02
2019-05-22T02:50:00.358Z,17.55
2019-05-22T02:52:30.032Z,19.95
2019-05-22T02:54:59.723Z,20.27
2019-05-22T02:57:30.504Z,19.07
2019-05-22T03:00:00.875Z,15.60
2019-05-22T03:02:32.493Z,13.50
2019-05-22T03:05:05.932Z,18.00
2019-05-22T03:07:34.669Z,16.57
2019-05-22T03:10:05.872Z,16.37
2019-05-22T03:15:07.658Z,19.48
2019-05-22T03:17:38.833Z,19.25
2019-05-22T03:23:16.499Z,16.27
2019-05-22T03:25:46.497Z,16.87
2019-05-22T03:28:15.333Z,15.28
2019-05-22T03:30:45.374Z,17.37
2019-05-22T03:33:14.670Z,14.38
2019-05-22T03:35:48.067Z,18.45
2019-05-22T03:38:18.958Z,14.93
2019-05-22T03:40:50.955Z,15.80
2019-05-22T03:43:28.937Z,12.55
2019-05-22T03:45:59.087Z,12.78
2019-05-22T03:48:31.132Z,19.02
2019-05-22T03:51:11.833Z,15.50
2019-05-22T03:53:41.028Z,13.53
2019-05-22T03:56:10.463Z,10.82
2019-05-22T03:58:39.374Z,12.45
2019-05-22T04:01:09.170Z,22.45
2019-05-22T04:03:38.608Z,18.82
2019-05-22T04:06:08.556Z,15.25
2019-05-22T04:08:38.695Z,18.12
2019-05-22T04:11:08.523Z,19.65
2019-05-22T04:13:37.702Z,15.10
2019-05-22T04:16:09.558Z,12.25
2019-05-22T04:18:39.271Z,16.85
2019-05-22T04:21:08.018Z,12.70
2019-05-22T04:23:38.126Z,12.90
2019-05-22T04:26:09.527Z,10.60
2019-05-22T04:28:47.591Z,16.12
2019-05-22T04:31:16.789Z,13.95
2019-05-22T04:33:45.584Z,19.57
2019-05-22T04:36:15.252Z,17.00
2019-05-22T04:38:44.119Z,16.90
2019-05-22T04:41:13.933Z,18.07
2019-05-22T04:43:42.863Z,19.48
2019-05-22T04:46:12.934Z,14.83
2019-05-22T04:48:45.749Z,19.45
2019-05-22T04:51:25.656Z,19.67
2019-05-22T04:56:23.670Z,15.93
2019-05-22T04:58:53.063Z,22.52
2019-05-22T05:01:22.459Z,17.35
2019-05-22T05:03:52.052Z,24.30
2019-05-22T05:06:24.068Z,22.70
2019-05-22T05:08:52.871Z,17.23
2019-05-22T05:11:21.894Z,16.35
2019-05-22T05:13:50.622Z,20.37
2019-05-22T05:16:19.369Z,15.53
2019-05-22T05:18:48.421Z,15.60
2019-05-22T05:21:17.240Z,15.68
2019-05-22T05:23:46.371Z,17.52
2019-05-22T05:26:15.600Z,15.43
2019-05-22T05:28:44.329Z,19.80
2019-05-22T05:31:13.485Z,12.37
2019-05-22T05:34:04.574Z,16.90
2019-05-22T05:36:34.405Z,12.37
2019-05-22T05:39:07.238Z,16.67
2019-05-22T05:41:37.772Z,16.15
2019-05-22T05:44:06.700Z,20.97
2019-05-22T05:46:35.428Z,16.80
2019-05-22T05:49:04.390Z,18.37
2019-05-22T05:51:37.042Z,21.25
2019-05-22T05:54:08.887Z,13.72
2019-05-22T05:56:41.381Z,17.62
2019-05-22T05:59:12.155Z,16.27
2019-05-22T06:01:42.501Z,23.60
2019-05-22T06:04:11.792Z,21.97
2019-05-22T06:06:43.455Z,22.75
2019-05-22T06:09:15.184Z,19.25
2019-05-22T06:11:56.418Z,25.23
2019-05-22T06:14:28.478Z,17.70
2019-05-22T06:17:07.493Z,19.48
2019-05-22T06:19:54.702Z,16.42
2019-05-22T06:22:23.389Z,20.02
2019-05-22T06:25:01.801Z,18.40
2019-05-22T06:27:42.829Z,19.25
2019-05-22T06:30:16.213Z,15.28
2019-05-22T06:33:10.755Z,14.53
2019-05-22T06:35:39.880Z,19.80
2019-05-22T06:38:30.460Z,16.57
2019-05-22T06:40:59.361Z,15.98
2019-05-22T06:43:31.410Z,14.45
2019-05-22T06:46:00.216Z,20.90
2019-05-22T06:48:29.162Z,18.52
2019-05-22T06:50:58.097Z,19.15
2019-05-22T06:53:26.992Z,19.35
2019-05-22T06:55:55.673Z,17.90
2019-05-22T06:58:24.501Z,19.32
2019-05-22T07:00:53.706Z,21.20
2019-05-22T07:03:23.108Z,25.00
2019-05-22T07:05:53.357Z,17.55
2019-05-22T07:08:22.658Z,19.43
2019-05-22T07:10:51.489Z,22.17
2019-05-22T07:13:22.017Z,19.82
2019-05-22T07:15:52.180Z,22.75
2019-05-22T07:18:22.669Z,18.67
2019-05-22T07:20:52.609Z,23.77
2019-05-22T07:23:23.569Z,21.05
2019-05-22T07:25:52.774Z,17.95
2019-05-22T07:28:23.383Z,17.32
2019-05-22T07:30:52.673Z,17.20
2019-05-22T07:33:22.942Z,19.98
2019-05-22T07:36:08.667Z,15.00
2019-05-22T07:40:52.013Z,12.47
2019-05-22T07:43:22.080Z,18.87
2019-05-22T07:45:51.792Z,13.03
2019-05-22T07:48:21.977Z,15.38
2019-05-22T07:50:52.266Z,14.53
2019-05-22T07:53:22.630Z,17.67
2019-05-22T07:55:53.833Z,12.90
2019-05-22T07:58:24.150Z,12.53
2019-05-22T08:00:55.043Z,12.20
2019-05-22T08:03:25.151Z,13.88
2019-05-22T08:05:56.317Z,11.30
2019-05-22T08:08:25.904Z,17.87
2019-05-22T08:10:56.512Z,12.50
2019-05-22T08:13:26.138Z,15.10
2019-05-22T08:15:54.863Z,10.70
2019-05-22T08:18:24.169Z,12.75
2019-05-22T08:20:53.105Z,12.18
2019-05-22T08:23:22.552Z,16.80
2019-05-22T08:25:51.951Z,13.45
2019-05-22T08:28:21.334Z,12.25
2019-05-22T08:30:51.393Z,12.63
2019-05-22T08:33:21.491Z,11.17
2019-05-22T08:35:50.889Z,22.97
2019-05-22T08:38:23.728Z,13.28
2019-05-22T08:40:52.861Z,13.35
2019-05-22T08:43:22.396Z,12.90
2019-05-22T08:45:51.587Z,10.32
2019-05-22T08:48:20.828Z,16.32
2019-05-22T08:50:50.379Z,17.62
2019-05-22T08:53:19.804Z,15.18
2019-05-22T08:55:49.241Z,12.80
2019-05-22T08:58:19.130Z,13.60
2019-05-22T09:00:48.649Z,24.53
2019-05-22T09:06:04.761Z,14.90
2019-05-22T09:08:34.665Z,10.05
2019-05-22T09:11:03.857Z,18.23
2019-05-22T09:13:33.087Z,12.18
2019-05-22T09:16:03.188Z,13.72
2019-05-22T09:18:32.362Z,14.78
2019-05-22T09:21:01.503Z,11.85
2019-05-22T09:23:30.988Z,9.80
2019-05-22T09:26:01.125Z,8.93
2019-05-22T09:28:30.316Z,10.23
2019-05-22T09:30:59.205Z,9.20
2019-05-22T09:33:29.042Z,11.20
2019-05-22T09:35:58.091Z,10.28
2019-05-22T09:38:27.149Z,5.97
2019-05-22T09:40:55.962Z,8.48
2019-05-22T09:43:24.678Z,7.12
2019-05-22T09:45:53.464Z,9.15
2019-05-22T09:48:22.386Z,12.63
2019-05-22T09:50:51.502Z,5.10
2019-05-22T09:53:21.604Z,11.68
2019-05-22T09:55:51.630Z,11.15
2019-05-22T09:58:20.353Z,8.40
2019-05-22T10:00:49.018Z,14.23
2019-05-22T10:03:18.617Z,11.05
2019-05-22T10:05:48.304Z,10.82
2019-05-22T10:08:17.445Z,11.27
2019-05-22T10:10:46.162Z,13.72
2019-05-22T10:13:14.928Z,10.40
2019-05-22T10:15:43.824Z,10.70
2019-05-22T10:18:13.726Z,10.70
2019-05-22T10:20:43.101Z,5.93
2019-05-22T10:23:15.868Z,10.82
2019-05-22T10:25:43.775Z,13.28
2019-05-22T10:28:12.820Z,8.65
2019-05-22T10:30:41.537Z,11.28
2019-05-22T10:33:10.938Z,9.75
2019-05-22T10:35:40.730Z,11.35
2019-05-22T10:38:09.565Z,11.10
2019-05-22T10:40:38.481Z,11.80
2019-05-22T10:43:07.329Z,14.83
2019-05-22T10:45:36.849Z,12.93
2019-05-22T10:48:05.906Z,19.67
2019-05-22T10:50:35.288Z,13.38
2019-05-22T10:53:04.687Z,10.95
2019-05-22T10:55:34.315Z,11.75
2019-05-22T10:58:03.229Z,10.23
2019-05-22T11:00:32.324Z,7.45
2019-05-22T11:03:01.237Z,8.60
2019-05-22T11:05:30.264Z,13.60
2019-05-22T11:07:59.817Z,7.85
2019-05-22T11:10:29.401Z,10.15
2019-05-22T11:12:59.109Z,10.98
2019-05-22T11:15:28.238Z,10.75
2019-05-22T11:17:57.559Z,9.30
2019-05-22T11:20:26.377Z,17.45
2019-05-22T11:22:56.070Z,10.88
2019-05-22T11:25:25.470Z,12.73
2019-05-22T11:27:54.629Z,7.55
2019-05-22T11:30:24.001Z,12.35
2019-05-22T11:32:53.880Z,10.80
2019-05-22T11:35:23.068Z,10.07
2019-05-22T11:37:51.876Z,6.67
2019-05-22T11:40:21.405Z,9.80
2019-05-22T11:42:51.945Z,12.73
2019-05-22T11:45:21.744Z,11.12
2019-05-22T11:47:51.248Z,8.78
2019-05-22T11:50:21.948Z,10.53
2019-05-22T11:55:19.227Z,10.55
2019-05-22T11:57:49.221Z,9.45
2019-05-22T12:00:20.134Z,9.13
2019-05-22T12:02:49.682Z,11.88
2019-05-22T12:05:19.992Z,13.13
2019-05-22T12:07:49.181Z,10.72
2019-05-22T12:10:20.783Z,7.40
2019-05-22T12:12:51.598Z,7.87
2019-05-22T12:15:23.981Z,9.50
2019-05-22T12:17:53.712Z,13.13
2019-05-22T12:20:23.536Z,9.90
2019-05-22T12:22:52.565Z,9.83
2019-05-22T12:25:21.688Z,7.17
2019-05-22T12:27:50.549Z,15.90
2019-05-22T12:30:20.359Z,8.23
2019-05-22T12:32:49.464Z,11.05
2019-05-22T12:35:18.857Z,9.78
2019-05-22T12:37:47.927Z,12.00
2019-05-22T12:40:19.360Z,10.18
2019-05-22T12:42:49.113Z,12.80
2019-05-22T12:45:26.833Z,16.32
2019-05-22T12:47:56.201Z,12.60
2019-05-22T12:50:28.370Z,12.00
2019-05-22T12:52:57.965Z,10.63
2019-05-22T12:55:27.189Z,10.20
2019-05-22T12:57:56.459Z,20.27
2019-05-22T13:00:27.271Z,9.50
2019-05-22T13:02:58.729Z,11.88
2019-05-22T13:05:27.694Z,15.35
2019-05-22T13:07:58.529Z,17.50
2019-05-22T13:12:56.929Z,11.80
2019-05-22T13:15:25.850Z,12.95
2019-05-22T13:17:55.585Z,10.35
2019-05-22T13:20:42.039Z,10.32
2019-05-22T13:22:58.264Z,12.82
2019-05-22T13:25:32.785Z,12.95
2019-05-22T13:28:02.714Z,13.10
2019-05-22T13:30:34.705Z,16.02
2019-05-22T13:33:04.217Z,11.97
2019-05-22T13:35:33.937Z,6.30
2019-05-22T13:38:04.259Z,15.28
2019-05-22T13:40:34.819Z,7.75
2019-05-22T13:43:04.341Z,17.27
2019-05-22T13:45:33.774Z,8.38
2019-05-22T13:48:02.691Z,6.83
2019-05-22T13:50:32.091Z,12.53
2019-05-22T13:53:03.148Z,10.35
2019-05-22T13:55:32.899Z,11.80
2019-05-22T13:58:02.993Z,12.35
2019-05-22T14:00:32.780Z,14.13
2019-05-22T14:03:01.717Z,15.00
2019-05-22T14:05:33.002Z,11.93
2019-05-22T14:08:02.006Z,11.97
2019-05-22T14:10:33.198Z,11.78
2019-05-22T14:13:02.049Z,19.60
2019-05-22T14:15:47.825Z,16.85
2019-05-22T14:18:01.963Z,15.05
2019-05-22T14:20:30.773Z,10.72
2019-05-22T14:22:59.972Z,10.75
2019-05-22T14:25:29.377Z,14.25
2019-05-22T14:27:58.342Z,9.95
2019-05-22T14:30:28.699Z,13.20
2019-05-22T14:33:03.929Z,12.73
2019-05-22T14:35:47.005Z,13.22
2019-05-22T14:38:05.180Z,12.60
2019-05-22T14:40:34.960Z,14.78
2019-05-22T14:43:04.309Z,8.50
2019-05-22T14:45:33.539Z,11.78
2019-05-22T14:48:02.260Z,10.90
2019-05-22T14:50:32.929Z,7.95
2019-05-22T14:55:32.570Z,14.30
2019-05-22T14:58:02.407Z,11.25
2019-05-22T15:00:31.232Z,10.90
2019-05-22T15:03:00.168Z,10.45
2019-05-22T15:05:29.502Z,13.00
2019-05-22T15:07:58.221Z,10.65
2019-05-22T15:10:28.557Z,13.48
2019-05-22T15:12:57.546Z,14.53
2019-05-22T15:15:26.533Z,9.78
2019-05-22T15:17:55.400Z,10.95
2019-05-22T15:20:27.089Z,11.63
2019-05-22T15:22:56.734Z,11.25
2019-05-22T15:25:26.944Z,12.53
2019-05-22T15:27:55.907Z,12.57
2019-05-22T15:30:24.892Z,12.40
2019-05-22T15:32:53.804Z,11.08
2019-05-22T15:35:23.439Z,12.25
2019-05-22T15:37:53.730Z,11.57
2019-05-22T15:40:24.345Z,15.50
2019-05-22T15:42:54.036Z,17.92
2019-05-22T15:45:29.165Z,11.48
2019-05-22T15:48:02.355Z,15.58
2019-05-22T15:50:34.052Z,11.95
2019-05-22T15:53:07.862Z,12.58
2019-05-22T15:55:38.258Z,10.88
2019-05-22T15:58:08.883Z,12.50
2019-05-22T16:00:40.365Z,12.68
2019-05-22T16:03:12.574Z,11.57
2019-05-22T16:05:43.665Z,11.40
2019-05-22T16:10:43.399Z,10.53
2019-05-22T16:13:14.893Z,8.93
2019-05-22T16:15:47.539Z,15.43
2019-05-22T16:18:20.161Z,12.73
2019-05-22T16:20:50.160Z,12.60
2019-05-22T16:23:21.572Z,12.10
2019-05-22T16:28:19.610Z,13.98
2019-05-22T16:30:48.773Z,13.98
2019-05-22T16:33:18.621Z,14.00
2019-05-22T16:35:49.241Z,21.10
2019-05-22T16:38:18.449Z,22.37
2019-05-22T16:40:47.370Z,16.00
2019-05-22T16:43:17.461Z,16.77
2019-05-22T16:45:46.498Z,17.60
2019-05-22T16:48:28.378Z,14.28
2019-05-22T16:50:47.404Z,17.25
2019-05-22T16:53:17.871Z,17.65
2019-05-22T16:55:46.601Z,13.53
2019-05-22T16:58:16.230Z,9.13
2019-05-22T17:00:45.354Z,11.20
2019-05-22T17:03:16.572Z,14.13
2019-05-22T17:05:46.072Z,14.33
2019-05-22T17:08:16.675Z,11.45
2019-05-22T17:10:45.799Z,9.83
2019-05-22T17:13:16.739Z,14.13
2019-05-22T17:15:46.135Z,14.18
2019-05-22T17:18:18.201Z,11.75
2019-05-22T17:20:47.933Z,9.15
2019-05-22T17:23:17.619Z,12.25
2019-05-22T17:25:46.805Z,11.18
2019-05-22T17:28:17.592Z,13.65
2019-05-22T17:30:47.059Z,12.37
2019-05-22T17:33:15.928Z,13.35
2019-05-22T17:35:45.028Z,14.10
2019-05-22T17:38:14.925Z,9.75
2019-05-22T17:40:43.822Z,10.90
2019-05-22T17:43:14.406Z,12.75
2019-05-22T17:45:44.779Z,12.03
2019-05-22T17:48:16.262Z,14.93
2019-05-22T17:50:47.246Z,8.20
2019-05-22T17:53:17.937Z,13.90
2019-05-22T17:55:48.688Z,13.30
2019-05-22T17:58:18.196Z,12.20
2019-05-22T18:00:49.295Z,14.18
2019-05-22T18:05:47.304Z,9.85
2019-05-22T18:08:16.882Z,11.12
2019-05-22T18:10:48.575Z,14.95
2019-05-22T18:13:17.313Z,12.00
2019-05-22T18:15:46.804Z,11.80
2019-05-22T18:18:16.435Z,9.95
2019-05-22T18:20:45.579Z,12.98
2019-05-22T18:23:14.992Z,22.82
2019-05-22T18:25:45.144Z,21.05
2019-05-22T18:28:14.358Z,18.33
2019-05-22T18:30:43.849Z,22.22
2019-05-22T18:33:13.687Z,22.10
2019-05-22T18:35:42.599Z,24.40
2019-05-22T18:38:11.326Z,33.98
2019-05-22T18:40:40.256Z,34.95
2019-05-22T18:43:09.899Z,40.00
2019-05-22T18:45:38.900Z,42.55
2019-05-22T18:48:07.931Z,43.35
2019-05-22T18:50:37.012Z,45.83
2019-05-22T18:53:06.838Z,35.73
2019-05-22T18:55:35.558Z,38.02
2019-05-22T18:58:04.590Z,33.55
2019-05-22T19:00:33.682Z,31.10
2019-05-22T19:03:02.718Z,23.90
2019-05-22T19:05:33.352Z,23.10
2019-05-22T19:08:02.319Z,27.70
2019-05-22T19:10:31.960Z,17.35
2019-05-22T19:13:00.854Z,17.98
2019-05-22T19:15:29.888Z,21.57
2019-05-22T19:17:58.988Z,22.42
2019-05-22T19:20:27.997Z,16.10
2019-05-22T19:23:00.976Z,16.95
2019-05-22T19:25:27.422Z,17.40
2019-05-22T19:27:56.254Z,19.70
2019-05-22T19:30:25.478Z,12.95
2019-05-22T19:32:54.213Z,16.10
2019-05-22T19:35:23.253Z,16.40
2019-05-22T19:37:52.664Z,15.18
2019-05-22T19:40:21.973Z,21.90
2019-05-22T19:42:51.200Z,14.23
2019-05-22T19:45:21.156Z,20.23
2019-05-22T19:47:52.865Z,17.15
2019-05-22T19:50:23.860Z,15.72
2019-05-22T19:55:22.610Z,19.00
2019-05-22T19:57:51.708Z,14.50
2019-05-22T20:00:22.175Z,18.37
2019-05-22T20:02:51.183Z,17.10
2019-05-22T20:05:20.908Z,15.28
2019-05-22T20:07:49.234Z,15.43
2019-05-22T20:10:17.838Z,23.45
2019-05-22T20:12:46.575Z,19.57
2019-05-22T20:15:15.679Z,15.93
2019-05-22T20:17:44.491Z,16.77
2019-05-22T20:20:15.958Z,18.17
2019-05-22T20:22:45.857Z,16.50
2019-05-22T20:25:15.452Z,20.70
2019-05-22T20:27:46.409Z,19.35
2019-05-22T20:30:17.094Z,15.53
2019-05-22T20:32:46.297Z,15.65
2019-05-22T20:35:16.020Z,13.78
2019-05-22T20:37:46.756Z,14.50
2019-05-22T20:40:19.225Z,16.60
2019-05-22T20:42:48.847Z,18.10
2019-05-22T20:45:21.163Z,16.02
2019-05-22T20:47:54.495Z,17.82
2019-05-22T20:50:25.327Z,15.38
2019-05-22T20:52:55.155Z,17.70
2019-05-22T20:55:24.311Z,16.10
2019-05-22T20:57:53.355Z,15.93
2019-05-22T21:00:23.386Z,13.88
2019-05-22T21:02:55.025Z,18.62
2019-05-22T21:05:24.086Z,15.25
2019-05-22T21:07:55.780Z,18.65
2019-05-22T21:10:25.490Z,23.47
2019-05-22T21:12:54.382Z,14.98
2019-05-22T21:15:23.627Z,17.12
2019-05-22T21:17:52.616Z,17.67
2019-05-22T21:20:23.196Z,17.30
2019-05-22T21:22:52.198Z,23.25
2019-05-22T21:25:22.024Z,20.12
2019-05-22T21:27:51.733Z,18.73
2019-05-22T21:30:22.144Z,22.95
2019-05-22T21:32:51.044Z,22.15
2019-05-22T21:35:19.772Z,19.82
2019-05-22T21:37:48.820Z,20.10
2019-05-22T21:40:20.308Z,18.00
2019-05-22T21:42:51.290Z,14.83
2019-05-22T21:45:20.791Z,18.48
2019-05-22T21:47:50.445Z,22.85
2019-05-22T21:50:20.575Z,18.37
2019-05-22T21:52:49.225Z,21.80
2019-05-22T21:55:19.328Z,20.55
2019-05-22T21:57:48.052Z,22.07
2019-05-22T22:00:42.481Z,22.05
2019-05-22T22:03:13.157Z,23.83
2019-05-22T22:05:42.372Z,29.20
2019-05-22T22:08:11.565Z,19.73
2019-05-22T22:10:41.273Z,27.13
2019-05-22T22:13:10.605Z,20.12
2019-05-22T22:15:43.792Z,22.48
2019-05-22T22:18:13.300Z,25.65
2019-05-22T22:20:43.595Z,26.55
2019-05-22T22:23:15.434Z,26.67
2019-05-22T22:25:44.737Z,28.77
2019-05-22T22:28:15.647Z,26.40
2019-05-22T22:30:58.865Z,25.08
2019-05-22T22:33:32.960Z,28.98
2019-05-22T22:36:02.382Z,31.93
2019-05-22T22:38:33.532Z,34.13
2019-05-22T22:43:33.045Z,36.03
2019-05-22T22:46:05.344Z,36.85
2019-05-22T22:48:39.392Z,36.30
2019-05-22T22:51:12.299Z,35.70
2019-05-22T22:53:43.836Z,33.95
2019-05-22T22:56:15.401Z,41.45
2019-05-22T22:58:44.839Z,34.50
2019-05-22T23:01:17.173Z,34.65
2019-05-22T23:03:48.668Z,37.17
2019-05-22T23:06:17.668Z,39.48
2019-05-22T23:08:47.294Z,35.85
2019-05-22T23:11:17.201Z,40.43
2019-05-22T23:13:46.098Z,37.08
2019-05-22T23:16:16.013Z,36.30
2019-05-22T23:18:48.145Z,38.20
2019-05-22T23:21:18.713Z,42.33
2019-05-22T23:23:46.173Z,38.25
2019-05-22T23:26:16.330Z,38.00
2019-05-22T23:28:45.353Z,40.17
2019-05-22T23:31:14.891Z,41.28
2019-05-22T23:33:44.084Z,39.65
2019-05-22T23:36:13.524Z,37.53
2019-05-22T23:38:43.140Z,40.15
2019-05-22T23:41:13.853Z,40.00
2019-05-22T23:43:44.745Z,38.65
2019-05-22T23:46:14.849Z,38.33
2019-05-22T23:48:43.867Z,36.53
2019-05-22T23:51:12.883Z,40.10
2019-05-22T23:53:43.547Z,44.50
2019-05-22T23:56:14.077Z,37.05
2019-05-22T23:58:52.830Z,42.53
